createdAt,value
2023-02-07T00:01:13.760Z,11.43
2023-02-07T00:03:40.824Z,13.32
2023-02-07T00:06:10.443Z,11.60
2023-02-07T00:08:39.074Z,14.20
2023-02-07T00:11:07.978Z,15.27
2023-02-07T00:13:35.553Z,15.52
2023-02-07T00:16:04.470Z,15.10
2023-02-07T00:18:32.624Z,15.32
2023-02-07T00:21:08.229Z,14.02
2023-02-07T00:23:36.244Z,14.70
2023-02-07T00:26:04.179Z,14.68
2023-02-07T00:28:31.174Z,13.93
2023-02-07T00:31:09.148Z,14.18
2023-02-07T00:36:06.051Z,12.18
2023-02-07T00:38:33.426Z,12.60
2023-02-07T00:41:01.620Z,14.35
2023-02-07T00:43:32.618Z,12.80
2023-02-07T00:46:01.165Z,12.68
2023-02-07T00:48:29.038Z,12.00
2023-02-07T00:50:56.147Z,12.38
2023-02-07T00:55:49.631Z,12.98
2023-02-07T00:58:16.406Z,12.73
2023-02-07T01:00:43.185Z,12.45
2023-02-07T01:03:10.374Z,12.20
2023-02-07T01:05:37.518Z,13.00
2023-02-07T01:08:04.713Z,14.75
2023-02-07T01:12:58.452Z,14.18
2023-02-07T01:17:52.915Z,15.07
2023-02-07T01:20:19.694Z,14.27
2023-02-07T01:22:46.402Z,13.40
2023-02-07T01:25:13.133Z,14.27
2023-02-07T01:27:39.908Z,14.38
2023-02-07T01:30:07.273Z,12.63
2023-02-07T01:32:34.465Z,14.80
2023-02-07T01:35:02.333Z,13.40
2023-02-07T01:37:29.098Z,13.25
2023-02-07T01:39:56.146Z,13.35
2023-02-07T01:42:26.515Z,13.00
2023-02-07T01:45:22.431Z,15.00
2023-02-07T01:47:49.871Z,14.57
2023-02-07T01:50:17.783Z,14.85
2023-02-07T01:52:45.162Z,14.75
2023-02-07T01:55:16.702Z,16.98
2023-02-07T01:57:44.770Z,16.13
2023-02-07T02:00:14.555Z,15.77
2023-02-07T02:02:44.633Z,15.13
2023-02-07T02:05:13.138Z,15.40
2023-02-07T02:07:41.143Z,15.02
2023-02-07T02:10:18.827Z,12.35
2023-02-07T02:13:12.033Z,13.20
2023-02-07T02:15:58.626Z,16.02
2023-02-07T02:18:48.812Z,17.77
2023-02-07T02:21:40.141Z,18.27
2023-02-07T02:24:18.854Z,19.55
2023-02-07T02:26:58.074Z,19.50
2023-02-07T02:30:01.914Z,18.85
2023-02-07T02:32:53.836Z,18.67
2023-02-07T02:35:31.977Z,22.00
2023-02-07T02:38:28.330Z,19.20
2023-02-07T02:41:04.665Z,19.00
2023-02-07T02:43:55.611Z,16.00
2023-02-07T02:46:28.307Z,16.50
2023-02-07T02:48:58.519Z,17.17
2023-02-07T02:51:29.223Z,16.85
2023-02-07T02:53:58.123Z,17.73
2023-02-07T02:56:57.139Z,17.23
2023-02-07T02:59:26.813Z,14.50
2023-02-07T03:02:31.103Z,16.02
2023-02-07T03:05:45.647Z,16.48
2023-02-07T03:08:40.228Z,16.67
2023-02-07T03:11:11.627Z,17.27
2023-02-07T03:14:03.799Z,13.20
2023-02-07T03:16:46.011Z,14.10
2023-02-07T03:19:18.630Z,15.35
2023-02-07T03:22:02.401Z,15.82
2023-02-07T03:24:34.454Z,15.73
2023-02-07T03:27:07.128Z,14.80
2023-02-07T03:29:36.974Z,17.30
2023-02-07T03:32:07.052Z,18.75
2023-02-07T03:34:45.687Z,15.88
2023-02-07T03:37:39.690Z,12.38
2023-02-07T03:40:07.417Z,7.22
2023-02-07T03:42:42.966Z,13.75
2023-02-07T03:45:14.617Z,13.95
2023-02-07T03:47:41.525Z,13.75
2023-02-07T03:50:08.549Z,12.32
2023-02-07T03:52:35.427Z,14.05
2023-02-07T03:55:02.258Z,12.93
2023-02-07T03:57:28.949Z,13.13
2023-02-07T03:59:55.675Z,13.30
2023-02-07T04:02:22.485Z,11.23
2023-02-07T04:04:49.478Z,10.02
2023-02-07T04:07:16.178Z,8.13
2023-02-07T04:09:42.951Z,9.82
2023-02-07T04:12:09.709Z,8.70
2023-02-07T04:14:36.378Z,11.20
2023-02-07T04:17:03.176Z,11.30
2023-02-07T04:19:29.898Z,14.32
2023-02-07T04:21:56.616Z,13.05
2023-02-07T04:24:23.375Z,12.68
2023-02-07T04:26:50.165Z,15.63
2023-02-07T04:29:16.940Z,16.52
2023-02-07T04:31:43.778Z,15.25
2023-02-07T04:34:10.551Z,16.35
2023-02-07T04:36:37.315Z,21.67
2023-02-07T04:39:04.104Z,18.05
2023-02-07T04:41:30.929Z,16.92
2023-02-07T04:43:57.712Z,18.77
2023-02-07T04:46:24.480Z,16.63
2023-02-07T04:48:51.198Z,16.17
2023-02-07T04:51:19.426Z,16.65
2023-02-07T04:53:46.115Z,15.90
2023-02-07T04:56:12.834Z,16.17
2023-02-07T04:58:39.547Z,17.33
2023-02-07T05:01:06.394Z,16.00
2023-02-07T05:03:33.122Z,17.77
2023-02-07T05:05:59.894Z,15.75
2023-02-07T05:08:26.587Z,17.30
2023-02-07T05:10:56.564Z,15.55
2023-02-07T05:13:24.325Z,15.63
2023-02-07T05:15:51.426Z,15.77
2023-02-07T05:18:18.545Z,16.65
2023-02-07T05:23:12.249Z,20.00
2023-02-07T05:28:06.121Z,17.20
2023-02-07T05:30:33.002Z,17.48
2023-02-07T05:33:06.124Z,17.27
2023-02-07T05:35:39.040Z,16.98
2023-02-07T05:38:09.012Z,17.10
2023-02-07T05:40:37.648Z,16.33
2023-02-07T05:43:04.784Z,17.70
2023-02-07T05:47:58.361Z,17.17
2023-02-07T05:50:25.250Z,17.52
2023-02-07T05:53:04.746Z,17.25
2023-02-07T05:55:32.064Z,16.42
2023-02-07T05:57:58.825Z,15.15
2023-02-07T06:00:26.113Z,17.67
2023-02-07T06:02:53.288Z,15.75
2023-02-07T06:05:20.504Z,15.88
2023-02-07T06:10:14.795Z,16.17
2023-02-07T06:12:41.682Z,16.88
2023-02-07T06:15:08.973Z,16.08
2023-02-07T06:17:35.689Z,16.85
2023-02-07T06:20:02.448Z,16.50
2023-02-07T06:22:29.172Z,18.42
2023-02-07T06:24:55.920Z,17.20
2023-02-07T06:27:22.663Z,20.55
2023-02-07T06:29:49.372Z,17.48
2023-02-07T06:32:16.154Z,18.65
2023-02-07T06:34:42.857Z,17.33
2023-02-07T06:37:09.626Z,15.95
2023-02-07T06:39:36.326Z,16.13
2023-02-07T06:42:03.208Z,16.48
2023-02-07T06:44:29.900Z,17.08
2023-02-07T06:46:56.625Z,17.08
2023-02-07T06:49:23.412Z,17.05
2023-02-07T06:51:50.108Z,17.25
2023-02-07T06:54:16.987Z,17.45
2023-02-07T06:56:43.799Z,14.93
2023-02-07T06:59:10.532Z,18.88
2023-02-07T07:01:37.314Z,15.73
2023-02-07T07:04:04.162Z,11.18
2023-02-07T07:06:31.299Z,15.93
2023-02-07T07:11:24.552Z,16.05
2023-02-07T07:13:51.399Z,16.42
2023-02-07T07:16:18.105Z,13.45
2023-02-07T07:18:44.919Z,16.50
2023-02-07T07:21:12.632Z,14.00
2023-02-07T07:23:39.359Z,9.10
2023-02-07T07:26:06.180Z,16.95
2023-02-07T07:28:32.903Z,12.35
2023-02-07T07:31:08.080Z,17.15
2023-02-07T07:33:35.183Z,14.75
2023-02-07T07:36:03.574Z,14.82
2023-02-07T07:38:31.140Z,14.25
2023-02-07T07:40:58.564Z,17.10
2023-02-07T07:43:25.791Z,17.17
2023-02-07T07:45:55.900Z,14.77
2023-02-07T07:48:24.384Z,17.92
2023-02-07T07:50:51.633Z,16.30
2023-02-07T07:55:50.816Z,16.45
2023-02-07T07:58:18.047Z,18.20
2023-02-07T08:00:45.744Z,15.40
2023-02-07T08:03:13.593Z,16.98
2023-02-07T08:05:40.680Z,16.23
2023-02-07T08:08:07.824Z,17.98
2023-02-07T08:10:34.587Z,16.52
2023-02-07T08:13:01.511Z,17.08
2023-02-07T08:15:28.278Z,15.38
2023-02-07T08:17:55.031Z,17.27
2023-02-07T08:20:21.869Z,16.67
2023-02-07T08:22:48.841Z,12.70
2023-02-07T08:25:15.848Z,16.35
2023-02-07T08:27:43.030Z,15.45
2023-02-07T08:30:13.213Z,12.25
2023-02-07T08:32:41.353Z,16.90
2023-02-07T08:35:09.392Z,14.85
2023-02-07T08:37:36.727Z,14.30
2023-02-07T08:40:05.202Z,17.88
2023-02-07T08:42:32.246Z,15.60
2023-02-07T08:44:58.988Z,12.52
2023-02-07T08:47:25.667Z,18.77
2023-02-07T08:49:52.393Z,16.35
2023-02-07T08:52:19.164Z,16.48
2023-02-07T08:54:45.991Z,15.15
2023-02-07T08:57:12.698Z,14.82
2023-02-07T08:59:39.779Z,17.65
2023-02-07T09:02:06.909Z,17.45
2023-02-07T09:04:33.648Z,13.90
2023-02-07T09:07:00.387Z,14.23
2023-02-07T09:09:27.199Z,16.40
2023-02-07T09:11:53.944Z,13.65
2023-02-07T09:14:20.646Z,16.50
2023-02-07T09:16:47.415Z,16.85
2023-02-07T09:19:14.151Z,16.10
2023-02-07T09:21:40.938Z,16.73
2023-02-07T09:24:07.823Z,15.57
2023-02-07T09:26:35.775Z,15.90
2023-02-07T09:29:02.550Z,14.65
2023-02-07T09:31:29.301Z,14.55
2023-02-07T09:33:56.057Z,14.95
2023-02-07T09:36:26.387Z,13.07
2023-02-07T09:38:54.196Z,11.88
2023-02-07T09:41:20.875Z,11.75
2023-02-07T09:44:04.748Z,10.77
2023-02-07T09:46:48.532Z,14.82
2023-02-07T09:49:33.666Z,9.25
2023-02-07T09:52:02.193Z,14.48
2023-02-07T09:54:37.680Z,13.52
2023-02-07T09:57:11.467Z,12.77
2023-02-07T09:59:58.305Z,13.93
2023-02-07T10:03:11.409Z,13.43
2023-02-07T10:05:50.125Z,13.75
2023-02-07T10:08:18.984Z,13.98
2023-02-07T10:10:46.575Z,13.38
2023-02-07T10:13:16.287Z,13.25
2023-02-07T10:16:04.503Z,14.40
2023-02-07T10:18:44.969Z,14.40
2023-02-07T10:21:29.835Z,13.85
2023-02-07T10:24:19.766Z,14.75
2023-02-07T10:27:07.157Z,13.68
2023-02-07T10:29:44.695Z,13.27
2023-02-07T10:32:21.374Z,12.02
2023-02-07T10:34:51.509Z,13.15
2023-02-07T10:37:25.007Z,11.77
2023-02-07T10:40:05.779Z,13.35
2023-02-07T10:42:37.858Z,11.00
2023-02-07T10:45:05.831Z,14.07
2023-02-07T10:47:39.254Z,13.27
2023-02-07T10:50:24.888Z,13.32
2023-02-07T10:52:57.942Z,10.75
2023-02-07T10:55:53.872Z,10.95
2023-02-07T10:58:24.945Z,12.82
2023-02-07T11:00:54.110Z,13.40
2023-02-07T11:03:23.341Z,11.68
2023-02-07T11:06:08.009Z,13.38
2023-02-07T11:08:35.977Z,12.32
2023-02-07T11:11:33.068Z,12.73
2023-02-07T11:14:05.672Z,10.73
2023-02-07T11:16:32.835Z,12.82
2023-02-07T11:19:07.584Z,11.98
2023-02-07T11:21:34.422Z,11.55
2023-02-07T11:24:05.297Z,11.77
2023-02-07T11:26:34.544Z,12.77
2023-02-07T11:29:16.853Z,13.32
2023-02-07T11:31:45.095Z,13.02
2023-02-07T11:34:27.172Z,10.02
2023-02-07T11:36:55.181Z,13.52
2023-02-07T11:39:23.606Z,12.27
2023-02-07T11:42:13.261Z,11.70
2023-02-07T11:44:46.245Z,11.57
2023-02-07T11:47:21.467Z,11.38
2023-02-07T11:50:11.106Z,11.00
2023-02-07T11:52:39.810Z,11.93
2023-02-07T11:55:13.953Z,11.75
2023-02-07T11:57:40.837Z,10.95
2023-02-07T12:00:20.135Z,10.57
2023-02-07T12:02:59.064Z,13.40
2023-02-07T12:05:31.696Z,11.98
2023-02-07T12:08:20.470Z,10.95
2023-02-07T12:10:52.795Z,11.43
2023-02-07T12:13:24.628Z,11.27
2023-02-07T12:16:00.372Z,11.35
2023-02-07T12:18:56.297Z,11.35
2023-02-07T12:21:36.176Z,11.85
2023-02-07T12:24:12.999Z,10.88
2023-02-07T12:26:47.693Z,11.95
2023-02-07T12:29:56.419Z,11.85
2023-02-07T12:32:38.451Z,10.73
2023-02-07T12:35:11.487Z,12.02
2023-02-07T12:37:56.673Z,27.23
2023-02-07T12:40:50.480Z,26.10
2023-02-07T12:43:24.344Z,9.07
2023-02-07T12:46:02.688Z,9.50
2023-02-07T12:49:03.190Z,10.48
2023-02-07T12:52:13.223Z,11.57
2023-02-07T12:54:58.496Z,9.02
2023-02-07T12:57:34.027Z,11.00
2023-02-07T13:00:15.359Z,15.48
2023-02-07T13:03:19.429Z,14.43
2023-02-07T13:06:04.073Z,10.45
2023-02-07T13:08:43.912Z,9.20
2023-02-07T13:11:37.302Z,14.75
2023-02-07T13:14:16.212Z,10.45
2023-02-07T13:17:12.768Z,11.63
2023-02-07T13:20:16.799Z,12.63
2023-02-07T13:22:50.504Z,11.02
2023-02-07T13:25:23.318Z,9.10
2023-02-07T13:27:54.813Z,10.55
2023-02-07T13:30:22.240Z,9.30
2023-02-07T13:32:50.559Z,12.63
2023-02-07T13:35:29.156Z,10.85
2023-02-07T13:38:20.642Z,9.95
2023-02-07T13:41:09.660Z,11.52
2023-02-07T13:44:09.739Z,9.07
2023-02-07T13:47:01.188Z,10.80
2023-02-07T13:49:34.735Z,9.35
2023-02-07T13:52:24.586Z,9.60
2023-02-07T13:54:51.371Z,10.40
2023-02-07T13:57:51.871Z,10.82
2023-02-07T14:00:30.253Z,18.80
2023-02-07T14:03:01.436Z,15.15
2023-02-07T14:05:39.936Z,12.23
2023-02-07T14:08:24.502Z,9.48
2023-02-07T14:10:54.543Z,11.93
2023-02-07T14:13:21.172Z,11.20
2023-02-07T14:15:48.697Z,9.48
2023-02-07T14:18:40.788Z,9.80
2023-02-07T14:21:22.521Z,9.02
2023-02-07T14:24:03.941Z,10.07
2023-02-07T14:26:39.558Z,12.50
2023-02-07T14:29:24.500Z,12.23
2023-02-07T14:31:55.538Z,11.55
2023-02-07T14:34:24.869Z,10.70
2023-02-07T14:36:54.947Z,12.13
2023-02-07T14:39:31.261Z,10.35
2023-02-07T14:42:12.902Z,12.18
2023-02-07T14:44:43.218Z,10.13
2023-02-07T14:47:21.782Z,11.73
2023-02-07T14:49:51.281Z,10.95
2023-02-07T14:52:28.652Z,9.80
2023-02-07T14:54:57.928Z,10.10
2023-02-07T14:57:41.429Z,11.60
2023-02-07T15:00:08.142Z,11.02
2023-02-07T15:02:40.923Z,15.57
2023-02-07T15:05:13.805Z,16.52
2023-02-07T15:07:43.502Z,13.27
2023-02-07T15:10:43.884Z,11.98
2023-02-07T15:13:39.210Z,9.98
2023-02-07T15:16:21.317Z,11.85
2023-02-07T15:18:50.138Z,11.85
2023-02-07T15:21:24.526Z,10.90
2023-02-07T15:23:57.417Z,11.18
2023-02-07T15:26:24.643Z,12.32
2023-02-07T15:29:00.008Z,11.70
2023-02-07T15:31:27.121Z,11.40
2023-02-07T15:33:58.059Z,10.95
2023-02-07T15:36:42.737Z,11.93
2023-02-07T15:39:17.483Z,12.93
2023-02-07T15:41:46.700Z,16.40
2023-02-07T15:44:31.203Z,11.50
2023-02-07T15:47:00.414Z,12.13
2023-02-07T15:49:35.819Z,16.30
2023-02-07T15:52:28.598Z,19.10
2023-02-07T15:54:56.451Z,16.20
2023-02-07T15:57:25.987Z,15.60
2023-02-07T15:59:55.635Z,17.48
2023-02-07T16:02:59.276Z,21.55
2023-02-07T16:05:29.958Z,17.65
2023-02-07T16:07:57.865Z,15.70
2023-02-07T16:10:34.373Z,12.52
2023-02-07T16:13:06.954Z,11.82
2023-02-07T16:15:53.284Z,12.63
2023-02-07T16:18:41.091Z,11.40
2023-02-07T16:21:14.686Z,10.43
2023-02-07T16:23:42.337Z,11.50
2023-02-07T16:26:09.279Z,12.15
2023-02-07T16:28:36.023Z,12.95
2023-02-07T16:31:02.958Z,11.45
2023-02-07T16:33:29.699Z,11.35
2023-02-07T16:35:56.409Z,11.98
2023-02-07T16:38:23.104Z,11.85
2023-02-07T16:40:49.853Z,14.68
2023-02-07T16:43:40.551Z,13.32
2023-02-07T16:46:07.487Z,11.23
2023-02-07T16:48:34.219Z,13.95
2023-02-07T16:51:01.469Z,13.40
2023-02-07T16:55:57.443Z,13.07
2023-02-07T16:58:30.851Z,12.85
2023-02-07T17:00:57.724Z,14.05
2023-02-07T17:03:24.684Z,14.10
2023-02-07T17:05:51.406Z,14.00
2023-02-07T17:08:27.038Z,15.65
2023-02-07T17:10:58.910Z,16.33
2023-02-07T17:13:26.002Z,13.90
2023-02-07T17:15:52.962Z,14.55
2023-02-07T17:18:21.173Z,12.68
2023-02-07T17:20:47.903Z,11.23
2023-02-07T17:23:14.986Z,13.93
2023-02-07T17:25:42.869Z,13.85
2023-02-07T17:28:13.041Z,12.23
2023-02-07T17:30:41.895Z,13.93
2023-02-07T17:33:09.844Z,14.45
2023-02-07T17:35:37.925Z,13.35
2023-02-07T17:38:05.139Z,13.63
2023-02-07T17:43:07.910Z,12.68
2023-02-07T17:45:39.419Z,13.77
2023-02-07T17:48:11.982Z,14.05
2023-02-07T17:50:42.108Z,13.23
2023-02-07T17:53:10.119Z,12.82
2023-02-07T17:55:38.056Z,12.52
2023-02-07T17:58:06.263Z,12.95
2023-02-07T18:00:39.980Z,12.55
2023-02-07T18:03:07.965Z,12.48
2023-02-07T18:05:34.984Z,12.27
2023-02-07T18:08:01.775Z,12.65
2023-02-07T18:10:31.872Z,11.30
2023-02-07T18:12:59.108Z,12.48
2023-02-07T18:17:54.661Z,13.70
2023-02-07T18:20:22.798Z,14.38
2023-02-07T18:22:50.683Z,14.93
2023-02-07T18:25:18.270Z,13.90
2023-02-07T18:27:47.048Z,13.35
2023-02-07T18:30:14.888Z,13.63
2023-02-07T18:32:42.432Z,16.60
2023-02-07T18:35:09.286Z,54.58
2023-02-07T18:37:36.492Z,17.40
2023-02-07T18:40:04.964Z,17.10
2023-02-07T18:42:31.858Z,17.02
2023-02-07T18:44:58.796Z,17.73
2023-02-07T18:47:25.944Z,16.45
2023-02-07T18:49:52.660Z,15.23
2023-02-07T18:52:19.573Z,20.10
2023-02-07T18:54:46.243Z,17.98
2023-02-07T18:57:12.974Z,18.23
2023-02-07T18:59:39.746Z,19.25
2023-02-07T19:02:07.815Z,17.65
2023-02-07T19:04:34.591Z,16.25
2023-02-07T19:07:02.247Z,19.50
2023-02-07T19:09:29.564Z,16.70
2023-02-07T19:11:57.540Z,17.50
2023-02-07T19:14:31.089Z,17.55
2023-02-07T19:16:59.113Z,17.40
2023-02-07T19:19:28.786Z,16.90
2023-02-07T19:21:55.725Z,16.80
2023-02-07T19:24:23.698Z,16.27
2023-02-07T19:26:53.757Z,17.40
2023-02-07T19:29:28.109Z,21.15
2023-02-07T19:32:00.463Z,18.83
2023-02-07T19:34:28.369Z,16.70
2023-02-07T19:36:55.636Z,16.02
2023-02-07T19:39:22.750Z,53.85
2023-02-07T19:41:49.614Z,18.50
2023-02-07T19:44:17.266Z,19.05
2023-02-07T19:46:44.325Z,19.27
2023-02-07T19:51:39.880Z,17.85
2023-02-07T19:54:06.920Z,19.58
2023-02-07T19:56:34.140Z,20.48
2023-02-07T19:59:03.876Z,20.10
2023-02-07T20:01:33.087Z,19.05
2023-02-07T20:04:00.818Z,19.27
2023-02-07T20:06:31.468Z,18.00
2023-02-07T20:08:59.342Z,19.60
2023-02-07T20:11:26.729Z,19.45
2023-02-07T20:13:55.421Z,21.60
2023-02-07T20:16:24.479Z,20.25
2023-02-07T20:18:52.713Z,20.63
2023-02-07T20:21:24.057Z,21.65
2023-02-07T20:23:52.364Z,21.02
2023-02-07T20:26:42.552Z,21.92
2023-02-07T20:29:13.627Z,23.20
2023-02-07T20:31:40.950Z,28.42
2023-02-07T20:34:08.499Z,28.10
2023-02-07T20:36:40.871Z,27.70
2023-02-07T20:39:16.047Z,28.48
2023-02-07T20:41:46.044Z,27.05
2023-02-07T20:44:18.342Z,27.33
2023-02-07T20:46:49.288Z,27.77
2023-02-07T20:49:28.482Z,25.30
2023-02-07T20:51:56.767Z,24.45
2023-02-07T20:54:26.954Z,25.02
2023-02-07T20:56:54.731Z,23.70
2023-02-07T20:59:34.931Z,24.00
2023-02-07T21:02:02.121Z,24.85
2023-02-07T21:04:29.682Z,22.65
2023-02-07T21:06:56.749Z,22.33
2023-02-07T21:11:52.268Z,21.95
2023-02-07T21:14:25.729Z,21.55
2023-02-07T21:16:57.339Z,19.52
2023-02-07T21:19:25.112Z,19.00
2023-02-07T21:21:52.606Z,21.95
2023-02-07T21:24:19.351Z,20.58
2023-02-07T21:26:50.333Z,21.65
2023-02-07T21:29:17.986Z,21.00
2023-02-07T21:31:45.395Z,19.88
2023-02-07T21:34:13.202Z,21.10
2023-02-07T21:36:39.983Z,20.15
2023-02-07T21:39:10.596Z,19.88
2023-02-07T21:41:39.723Z,20.35
2023-02-07T21:44:07.128Z,20.73
2023-02-07T21:46:39.377Z,21.83
2023-02-07T21:49:14.302Z,21.17
2023-02-07T21:51:41.821Z,22.00
2023-02-07T21:54:08.659Z,23.20
2023-02-07T21:56:38.296Z,23.65
2023-02-07T21:59:07.809Z,24.10
2023-02-07T22:01:36.506Z,23.77
2023-02-07T22:04:05.701Z,26.63
2023-02-07T22:06:33.221Z,24.13
2023-02-07T22:09:02.081Z,24.77
2023-02-07T22:11:32.927Z,23.83
2023-02-07T22:14:00.638Z,23.23
2023-02-07T22:16:29.064Z,23.30
2023-02-07T22:18:57.627Z,23.10
2023-02-07T22:21:30.277Z,21.20
2023-02-07T22:23:58.233Z,25.33
2023-02-07T22:26:26.033Z,23.52
2023-02-07T22:28:53.369Z,23.23
2023-02-07T22:31:25.585Z,24.02
2023-02-07T22:33:53.859Z,21.98
2023-02-07T22:36:23.739Z,22.02
2023-02-07T22:38:50.958Z,20.67
